Terminal Aerodrome Forecast
Issued by NWS Duluth, MN

Home | Current Version | Previous Version | Text Only | Print | Product List | Glossary On
Versions: 1 2 3 4 5 6 7 8 9 10 11 12 13 14 15 16 17 18
000
FTUS43 KDLH 261000 AAA
TAFINL
TAF AMD
KINL 261047Z 2611/2706 28007KT P6SM BKN025
     FM261400 30009G15KT P6SM BKN030
     FM261800 30009G15KT P6SM SCT035
     FM270100 30003KT P6SM SCT100=

USA.gov is the U.S. government's official web portal to all federal, state and local government web resources and services.